sensor_id;sensor_type;location;lat;lon;timestamp;P1;durP1;ratioP1;P2;durP2;ratioP2
63398;SDS011;49533;-34.520;150.798;2022-12-07T00:01:26;11.75;;;3.40;;
63398;SDS011;49533;-34.520;150.798;2022-12-07T00:03:57;7.55;;;2.58;;
63398;SDS011;49533;-34.520;150.798;2022-12-07T00:06:32;6.10;;;2.42;;
63398;SDS011;49533;-34.520;150.798;2022-12-07T00:09:00;5.93;;;2.60;;
63398;SDS011;49533;-34.520;150.798;2022-12-07T00:11:27;5.53;;;2.35;;
63398;SDS011;49533;-34.520;150.798;2022-12-07T00:13:57;5.38;;;2.50;;
63398;SDS011;49533;-34.520;150.798;2022-12-07T00:16:27;5.55;;;2.30;;
63398;SDS011;49533;-34.520;150.798;2022-12-07T00:18:56;8.80;;;2.78;;
63398;SDS011;49533;-34.520;150.798;2022-12-07T00:21:25;6.20;;;2.75;;
63398;SDS011;49533;-34.520;150.798;2022-12-07T00:23:54;9.02;;;3.15;;
63398;SDS011;49533;-34.520;150.798;2022-12-07T00:26:23;7.63;;;2.80;;
63398;SDS011;49533;-34.520;150.798;2022-12-07T00:28:54;8.43;;;2.55;;
63398;SDS011;49533;-34.520;150.798;2022-12-07T00:31:24;8.77;;;3.25;;
63398;SDS011;49533;-34.520;150.798;2022-12-07T00:33:53;11.40;;;3.10;;
63398;SDS011;49533;-34.520;150.798;2022-12-07T00:36:22;9.18;;;2.88;;
63398;SDS011;49533;-34.520;150.798;2022-12-07T00:38:50;6.32;;;2.97;;
63398;SDS011;49533;-34.520;150.798;2022-12-07T00:41:19;7.60;;;3.13;;
63398;SDS011;49533;-34.520;150.798;2022-12-07T00:43:48;9.77;;;3.20;;
63398;SDS011;49533;-34.520;150.798;2022-12-07T00:46:17;5.55;;;2.92;;
63398;SDS011;49533;-34.520;150.798;2022-12-07T00:48:45;6.53;;;3.38;;
63398;SDS011;49533;-34.520;150.798;2022-12-07T00:51:14;8.85;;;3.33;;
63398;SDS011;49533;-34.520;150.798;2022-12-07T00:53:42;13.32;;;4.30;;
63398;SDS011;49533;-34.520;150.798;2022-12-07T00:56:11;10.38;;;4.03;;
63398;SDS011;49533;-34.520;150.798;2022-12-07T00:58:50;13.68;;;4.00;;
63398;SDS011;49533;-34.520;150.798;2022-12-07T01:01:23;10.73;;;3.60;;
63398;SDS011;49533;-34.520;150.798;2022-12-07T01:03:52;8.57;;;3.80;;
63398;SDS011;49533;-34.520;150.798;2022-12-07T01:06:20;8.90;;;3.72;;
63398;SDS011;49533;-34.520;150.798;2022-12-07T01:08:49;8.35;;;3.10;;
63398;SDS011;49533;-34.520;150.798;2022-12-07T01:11:18;5.93;;;3.35;;
63398;SDS011;49533;-34.520;150.798;2022-12-07T01:13:48;7.78;;;3.60;;
63398;SDS011;49533;-34.520;150.798;2022-12-07T01:16:18;7.10;;;3.40;;
63398;SDS011;49533;-34.520;150.798;2022-12-07T01:18:47;11.40;;;3.75;;
63398;SDS011;49533;-34.520;150.798;2022-12-07T01:21:18;12.68;;;3.70;;
63398;SDS011;49533;-34.520;150.798;2022-12-07T01:23:47;11.00;;;3.85;;
63398;SDS011;49533;-34.520;150.798;2022-12-07T01:26:16;10.80;;;4.00;;
63398;SDS011;49533;-34.520;150.798;2022-12-07T01:28:47;7.45;;;3.33;;
63398;SDS011;49533;-34.520;150.798;2022-12-07T01:31:16;7.35;;;3.88;;
63398;SDS011;49533;-34.520;150.798;2022-12-07T01:33:48;10.25;;;3.65;;
63398;SDS011;49533;-34.520;150.798;2022-12-07T01:36:21;7.32;;;3.30;;
63398;SDS011;49533;-34.520;150.798;2022-12-07T01:38:51;7.07;;;3.50;;
63398;SDS011;49533;-34.520;150.798;2022-12-07T01:41:22;8.70;;;3.20;;
63398;SDS011;49533;-34.520;150.798;2022-12-07T01:46:35;6.97;;;3.15;;
63398;SDS011;49533;-34.520;150.798;2022-12-07T01:49:03;6.82;;;3.20;;
63398;SDS011;49533;-34.520;150.798;2022-12-07T01:51:35;6.63;;;3.28;;
63398;SDS011;49533;-34.520;150.798;2022-12-07T01:54:07;10.23;;;3.20;;
63398;SDS011;49533;-34.520;150.798;2022-12-07T01:56:36;7.88;;;3.10;;
63398;SDS011;49533;-34.520;150.798;2022-12-07T01:59:05;9.88;;;3.10;;
63398;SDS011;49533;-34.520;150.798;2022-12-07T02:01:32;8.30;;;3.83;;
63398;SDS011;49533;-34.520;150.798;2022-12-07T02:03:59;9.25;;;3.22;;
63398;SDS011;49533;-34.520;150.798;2022-12-07T02:06:26;6.00;;;3.00;;
63398;SDS011;49533;-34.520;150.798;2022-12-07T02:08:54;6.32;;;3.08;;
63398;SDS011;49533;-34.520;150.798;2022-12-07T02:11:21;7.15;;;3.05;;
63398;SDS011;49533;-34.520;150.798;2022-12-07T02:13:48;6.90;;;2.88;;
63398;SDS011;49533;-34.520;150.798;2022-12-07T02:16:25;7.43;;;2.97;;
63398;SDS011;49533;-34.520;150.798;2022-12-07T02:21:52;6.57;;;2.58;;
63398;SDS011;49533;-34.520;150.798;2022-12-07T02:24:40;6.60;;;3.17;;
63398;SDS011;49533;-34.520;150.798;2022-12-07T02:27:30;5.22;;;2.05;;
63398;SDS011;49533;-34.520;150.798;2022-12-07T02:30:17;6.68;;;2.70;;
63398;SDS011;49533;-34.520;150.798;2022-12-07T02:32:57;4.60;;;2.28;;
63398;SDS011;49533;-34.520;150.798;2022-12-07T02:35:33;5.95;;;2.55;;
63398;SDS011;49533;-34.520;150.798;2022-12-07T02:38:16;4.50;;;1.40;;
63398;SDS011;49533;-34.520;150.798;2022-12-07T02:40:54;1.75;;;1.38;;
63398;SDS011;49533;-34.520;150.798;2022-12-07T02:43:36;2.67;;;1.48;;
63398;SDS011;49533;-34.520;150.798;2022-12-07T02:46:11;2.35;;;1.15;;
63398;SDS011;49533;-34.520;150.798;2022-12-07T02:48:45;3.38;;;1.60;;
63398;SDS011;49533;-34.520;150.798;2022-12-07T02:51:13;1.60;;;0.98;;
63398;SDS011;49533;-34.520;150.798;2022-12-07T02:53:41;2.10;;;0.90;;
63398;SDS011;49533;-34.520;150.798;2022-12-07T03:07:18;1.20;;;0.50;;
63398;SDS011;49533;-34.520;150.798;2022-12-07T03:10:10;2.65;;;0.85;;
63398;SDS011;49533;-34.520;150.798;2022-12-07T03:13:02;1.38;;;0.70;;
63398;SDS011;49533;-34.520;150.798;2022-12-07T03:15:52;1.55;;;0.60;;
63398;SDS011;49533;-34.520;150.798;2022-12-07T03:18:29;3.00;;;0.73;;
63398;SDS011;49533;-34.520;150.798;2022-12-07T03:21:02;2.88;;;0.80;;
63398;SDS011;49533;-34.520;150.798;2022-12-07T03:23:36;0.88;;;0.52;;
63398;SDS011;49533;-34.520;150.798;2022-12-07T03:26:08;4.10;;;0.95;;
63398;SDS011;49533;-34.520;150.798;2022-12-07T03:28:40;0.80;;;0.60;;
63398;SDS011;49533;-34.520;150.798;2022-12-07T03:31:14;1.50;;;0.60;;
63398;SDS011;49533;-34.520;150.798;2022-12-07T03:33:49;2.70;;;0.52;;
63398;SDS011;49533;-34.520;150.798;2022-12-07T03:36:43;0.70;;;0.57;;
63398;SDS011;49533;-34.520;150.798;2022-12-07T03:39:24;0.75;;;0.38;;
63398;SDS011;49533;-34.520;150.798;2022-12-07T03:41:59;4.22;;;1.05;;
63398;SDS011;49533;-34.520;150.798;2022-12-07T03:44:32;1.65;;;0.35;;
63398;SDS011;49533;-34.520;150.798;2022-12-07T03:47:03;1.50;;;0.70;;
63398;SDS011;49533;-34.520;150.798;2022-12-07T03:49:43;1.33;;;0.60;;
63398;SDS011;49533;-34.520;150.798;2022-12-07T03:52:26;2.55;;;0.60;;
63398;SDS011;49533;-34.520;150.798;2022-12-07T03:55:18;2.67;;;0.70;;
63398;SDS011;49533;-34.520;150.798;2022-12-07T03:57:52;5.30;;;0.63;;
63398;SDS011;49533;-34.520;150.798;2022-12-07T04:00:24;0.70;;;0.32;;
63398;SDS011;49533;-34.520;150.798;2022-12-07T04:02:52;1.35;;;0.47;;
63398;SDS011;49533;-34.520;150.798;2022-12-07T04:05:20;0.68;;;0.50;;
63398;SDS011;49533;-34.520;150.798;2022-12-07T04:07:49;0.80;;;0.50;;
63398;SDS011;49533;-34.520;150.798;2022-12-07T04:10:16;1.08;;;0.77;;
63398;SDS011;49533;-34.520;150.798;2022-12-07T04:12:44;3.13;;;0.82;;
63398;SDS011;49533;-34.520;150.798;2022-12-07T04:15:11;1.00;;;0.65;;
63398;SDS011;49533;-34.520;150.798;2022-12-07T04:17:38;0.68;;;0.40;;
63398;SDS011;49533;-34.520;150.798;2022-12-07T04:20:06;1.67;;;0.50;;
63398;SDS011;49533;-34.520;150.798;2022-12-07T04:22:35;0.60;;;0.50;;
63398;SDS011;49533;-34.520;150.798;2022-12-07T04:25:02;1.65;;;0.70;;
63398;SDS011;49533;-34.520;150.798;2022-12-07T04:27:29;2.35;;;0.80;;
63398;SDS011;49533;-34.520;150.798;2022-12-07T04:29:56;2.58;;;0.60;;
63398;SDS011;49533;-34.520;150.798;2022-12-07T04:32:24;1.55;;;0.55;;
63398;SDS011;49533;-34.520;150.798;2022-12-07T04:34:51;1.30;;;0.82;;
63398;SDS011;49533;-34.520;150.798;2022-12-07T04:37:18;2.25;;;0.70;;
63398;SDS011;49533;-34.520;150.798;2022-12-07T04:39:45;0.43;;;0.40;;
63398;SDS011;49533;-34.520;150.798;2022-12-07T04:42:12;0.85;;;0.60;;
63398;SDS011;49533;-34.520;150.798;2022-12-07T04:44:39;1.88;;;0.60;;
63398;SDS011;49533;-34.520;150.798;2022-12-07T04:47:07;0.40;;;0.40;;
63398;SDS011;49533;-34.520;150.798;2022-12-07T04:49:34;3.47;;;0.80;;
63398;SDS011;49533;-34.520;150.798;2022-12-07T04:52:01;0.93;;;0.40;;
63398;SDS011;49533;-34.520;150.798;2022-12-07T04:54:28;2.55;;;0.80;;
63398;SDS011;49533;-34.520;150.798;2022-12-07T04:56:56;0.60;;;0.40;;
63398;SDS011;49533;-34.520;150.798;2022-12-07T04:59:23;2.50;;;0.82;;
63398;SDS011;49533;-34.520;150.798;2022-12-07T05:01:50;0.75;;;0.50;;
63398;SDS011;49533;-34.520;150.798;2022-12-07T05:04:17;0.75;;;0.40;;
63398;SDS011;49533;-34.520;150.798;2022-12-07T05:06:44;1.02;;;0.63;;
63398;SDS011;49533;-34.520;150.798;2022-12-07T05:09:12;1.95;;;0.88;;
63398;SDS011;49533;-34.520;150.798;2022-12-07T05:11:39;2.20;;;0.70;;
63398;SDS011;49533;-34.520;150.798;2022-12-07T05:14:13;1.30;;;0.50;;
63398;SDS011;49533;-34.520;150.798;2022-12-07T05:16:42;1.75;;;0.65;;
63398;SDS011;49533;-34.520;150.798;2022-12-07T05:19:10;2.03;;;0.80;;
63398;SDS011;49533;-34.520;150.798;2022-12-07T05:21:39;2.33;;;1.00;;
63398;SDS011;49533;-34.520;150.798;2022-12-07T05:24:07;2.05;;;0.80;;
63398;SDS011;49533;-34.520;150.798;2022-12-07T05:26:37;1.33;;;0.40;;
63398;SDS011;49533;-34.520;150.798;2022-12-07T05:29:05;1.33;;;0.47;;
63398;SDS011;49533;-34.520;150.798;2022-12-07T05:31:32;1.33;;;0.57;;
63398;SDS011;49533;-34.520;150.798;2022-12-07T05:34:00;0.68;;;0.38;;
63398;SDS011;49533;-34.520;150.798;2022-12-07T05:36:27;0.55;;;0.38;;
63398;SDS011;49533;-34.520;150.798;2022-12-07T05:38:56;2.30;;;0.95;;
63398;SDS011;49533;-34.520;150.798;2022-12-07T05:41:24;2.05;;;0.68;;
63398;SDS011;49533;-34.520;150.798;2022-12-07T05:44:03;1.48;;;0.68;;
63398;SDS011;49533;-34.520;150.798;2022-12-07T05:46:31;1.98;;;0.63;;
63398;SDS011;49533;-34.520;150.798;2022-12-07T05:48:58;3.08;;;0.90;;
63398;SDS011;49533;-34.520;150.798;2022-12-07T05:51:25;1.00;;;0.63;;
63398;SDS011;49533;-34.520;150.798;2022-12-07T05:53:53;1.40;;;0.60;;
63398;SDS011;49533;-34.520;150.798;2022-12-07T05:56:20;1.80;;;0.65;;
63398;SDS011;49533;-34.520;150.798;2022-12-07T05:58:48;1.17;;;0.50;;
63398;SDS011;49533;-34.520;150.798;2022-12-07T06:01:27;0.98;;;0.32;;
63398;SDS011;49533;-34.520;150.798;2022-12-07T06:03:54;0.93;;;0.50;;
63398;SDS011;49533;-34.520;150.798;2022-12-07T06:06:21;3.65;;;0.70;;
63398;SDS011;49533;-34.520;150.798;2022-12-07T06:08:49;1.33;;;0.40;;
63398;SDS011;49533;-34.520;150.798;2022-12-07T06:11:16;0.73;;;0.40;;
63398;SDS011;49533;-34.520;150.798;2022-12-07T06:13:55;0.98;;;0.30;;
63398;SDS011;49533;-34.520;150.798;2022-12-07T06:16:22;0.50;;;0.32;;
63398;SDS011;49533;-34.520;150.798;2022-12-07T06:18:49;1.08;;;0.47;;
63398;SDS011;49533;-34.520;150.798;2022-12-07T06:21:16;2.10;;;0.40;;
63398;SDS011;49533;-34.520;150.798;2022-12-07T06:23:43;1.95;;;0.45;;
63398;SDS011;49533;-34.520;150.798;2022-12-07T06:26:11;1.52;;;0.50;;
63398;SDS011;49533;-34.520;150.798;2022-12-07T06:28:41;1.52;;;0.50;;
63398;SDS011;49533;-34.520;150.798;2022-12-07T06:31:09;1.65;;;0.65;;
63398;SDS011;49533;-34.520;150.798;2022-12-07T06:33:36;0.65;;;0.25;;
63398;SDS011;49533;-34.520;150.798;2022-12-07T06:36:03;0.63;;;0.50;;
63398;SDS011;49533;-34.520;150.798;2022-12-07T06:38:30;0.68;;;0.47;;
63398;SDS011;49533;-34.520;150.798;2022-12-07T06:40:58;0.82;;;0.55;;
63398;SDS011;49533;-34.520;150.798;2022-12-07T06:43:25;1.00;;;0.50;;
63398;SDS011;49533;-34.520;150.798;2022-12-07T06:45:52;0.80;;;0.40;;
63398;SDS011;49533;-34.520;150.798;2022-12-07T06:48:20;2.60;;;0.45;;
63398;SDS011;49533;-34.520;150.798;2022-12-07T06:50:48;1.30;;;0.40;;
63398;SDS011;49533;-34.520;150.798;2022-12-07T06:53:18;0.82;;;0.40;;
63398;SDS011;49533;-34.520;150.798;2022-12-07T06:55:45;2.60;;;0.60;;
63398;SDS011;49533;-34.520;150.798;2022-12-07T06:58:13;1.17;;;0.60;;
63398;SDS011;49533;-34.520;150.798;2022-12-07T07:00:41;1.58;;;0.80;;
63398;SDS011;49533;-34.520;150.798;2022-12-07T07:03:12;0.93;;;0.60;;
63398;SDS011;49533;-34.520;150.798;2022-12-07T07:05:39;0.95;;;0.35;;
63398;SDS011;49533;-34.520;150.798;2022-12-07T07:08:07;1.23;;;0.70;;
63398;SDS011;49533;-34.520;150.798;2022-12-07T07:10:34;3.95;;;0.60;;
63398;SDS011;49533;-34.520;150.798;2022-12-07T07:13:02;0.40;;;0.40;;
63398;SDS011;49533;-34.520;150.798;2022-12-07T07:15:29;1.92;;;0.65;;
63398;SDS011;49533;-34.520;150.798;2022-12-07T07:17:58;0.85;;;0.47;;
63398;SDS011;49533;-34.520;150.798;2022-12-07T07:20:25;6.80;;;0.95;;
63398;SDS011;49533;-34.520;150.798;2022-12-07T07:22:54;1.10;;;0.50;;
63398;SDS011;49533;-34.520;150.798;2022-12-07T07:25:21;1.35;;;0.55;;
63398;SDS011;49533;-34.520;150.798;2022-12-07T07:27:49;2.50;;;0.70;;
63398;SDS011;49533;-34.520;150.798;2022-12-07T07:30:17;0.77;;;0.40;;
63398;SDS011;49533;-34.520;150.798;2022-12-07T07:32:44;0.98;;;0.65;;
63398;SDS011;49533;-34.520;150.798;2022-12-07T07:35:12;2.08;;;0.30;;
63398;SDS011;49533;-34.520;150.798;2022-12-07T07:37:39;0.55;;;0.47;;
63398;SDS011;49533;-34.520;150.798;2022-12-07T07:40:07;0.93;;;0.60;;
63398;SDS011;49533;-34.520;150.798;2022-12-07T07:42:35;0.95;;;0.43;;
63398;SDS011;49533;-34.520;150.798;2022-12-07T07:45:03;0.77;;;0.60;;
63398;SDS011;49533;-34.520;150.798;2022-12-07T07:47:30;2.45;;;0.82;;
63398;SDS011;49533;-34.520;150.798;2022-12-07T07:49:58;1.55;;;0.90;;
63398;SDS011;49533;-34.520;150.798;2022-12-07T07:52:25;1.67;;;1.05;;
63398;SDS011;49533;-34.520;150.798;2022-12-07T07:54:52;4.70;;;1.63;;
63398;SDS011;49533;-34.520;150.798;2022-12-07T07:57:19;3.58;;;2.70;;
63398;SDS011;49533;-34.520;150.798;2022-12-07T07:59:47;6.18;;;2.90;;
63398;SDS011;49533;-34.520;150.798;2022-12-07T08:02:16;8.40;;;5.30;;
63398;SDS011;49533;-34.520;150.798;2022-12-07T08:04:45;9.05;;;4.90;;
63398;SDS011;49533;-34.520;150.798;2022-12-07T08:07:13;10.18;;;5.38;;
63398;SDS011;49533;-34.520;150.798;2022-12-07T08:09:41;8.80;;;4.57;;
63398;SDS011;49533;-34.520;150.798;2022-12-07T08:12:08;11.18;;;4.88;;
63398;SDS011;49533;-34.520;150.798;2022-12-07T08:14:35;8.13;;;4.45;;
63398;SDS011;49533;-34.520;150.798;2022-12-07T08:17:03;9.27;;;5.05;;
63398;SDS011;49533;-34.520;150.798;2022-12-07T08:19:30;13.52;;;5.68;;
63398;SDS011;49533;-34.520;150.798;2022-12-07T08:21:57;11.43;;;5.20;;
63398;SDS011;49533;-34.520;150.798;2022-12-07T08:24:24;10.93;;;5.30;;
63398;SDS011;49533;-34.520;150.798;2022-12-07T08:26:52;13.68;;;5.30;;
63398;SDS011;49533;-34.520;150.798;2022-12-07T08:29:19;12.43;;;4.65;;
63398;SDS011;49533;-34.520;150.798;2022-12-07T08:31:46;13.25;;;5.15;;
63398;SDS011;49533;-34.520;150.798;2022-12-07T08:37:06;9.68;;;4.88;;
63398;SDS011;49533;-34.520;150.798;2022-12-07T08:39:33;8.05;;;4.57;;
63398;SDS011;49533;-34.520;150.798;2022-12-07T08:42:00;5.82;;;4.13;;
63398;SDS011;49533;-34.520;150.798;2022-12-07T08:44:27;5.40;;;4.05;;
63398;SDS011;49533;-34.520;150.798;2022-12-07T08:46:56;7.20;;;3.83;;
63398;SDS011;49533;-34.520;150.798;2022-12-07T08:49:30;8.77;;;4.13;;
63398;SDS011;49533;-34.520;150.798;2022-12-07T08:52:02;5.03;;;3.55;;
63398;SDS011;49533;-34.520;150.798;2022-12-07T08:54:31;4.13;;;2.80;;
63398;SDS011;49533;-34.520;150.798;2022-12-07T08:57:02;4.05;;;2.67;;
63398;SDS011;49533;-34.520;150.798;2022-12-07T08:59:30;7.10;;;2.53;;
63398;SDS011;49533;-34.520;150.798;2022-12-07T09:01:59;3.33;;;2.33;;
63398;SDS011;49533;-34.520;150.798;2022-12-07T09:04:27;2.53;;;2.10;;
63398;SDS011;49533;-34.520;150.798;2022-12-07T09:06:55;5.43;;;1.83;;
63398;SDS011;49533;-34.520;150.798;2022-12-07T09:09:22;2.83;;;1.75;;
63398;SDS011;49533;-34.520;150.798;2022-12-07T09:11:50;2.65;;;1.48;;
63398;SDS011;49533;-34.520;150.798;2022-12-07T09:14:17;1.27;;;0.93;;
63398;SDS011;49533;-34.520;150.798;2022-12-07T09:16:44;2.97;;;1.30;;
63398;SDS011;49533;-34.520;150.798;2022-12-07T09:19:12;2.80;;;1.30;;
63398;SDS011;49533;-34.520;150.798;2022-12-07T09:21:39;3.20;;;1.30;;
63398;SDS011;49533;-34.520;150.798;2022-12-07T09:24:06;1.33;;;0.93;;
63398;SDS011;49533;-34.520;150.798;2022-12-07T09:26:34;1.48;;;1.00;;
63398;SDS011;49533;-34.520;150.798;2022-12-07T09:29:02;3.95;;;0.93;;
63398;SDS011;49533;-34.520;150.798;2022-12-07T09:31:30;2.63;;;1.08;;
63398;SDS011;49533;-34.520;150.798;2022-12-07T09:33:58;1.83;;;1.17;;
63398;SDS011;49533;-34.520;150.798;2022-12-07T09:36:26;0.60;;;0.50;;
63398;SDS011;49533;-34.520;150.798;2022-12-07T09:38:55;2.58;;;1.02;;
63398;SDS011;49533;-34.520;150.798;2022-12-07T09:41:22;4.38;;;1.00;;
63398;SDS011;49533;-34.520;150.798;2022-12-07T09:43:52;1.90;;;0.90;;
63398;SDS011;49533;-34.520;150.798;2022-12-07T09:46:22;2.60;;;0.98;;
63398;SDS011;49533;-34.520;150.798;2022-12-07T09:48:49;4.55;;;0.82;;
63398;SDS011;49533;-34.520;150.798;2022-12-07T09:51:19;1.65;;;0.75;;
63398;SDS011;49533;-34.520;150.798;2022-12-07T09:53:49;3.25;;;0.80;;
63398;SDS011;49533;-34.520;150.798;2022-12-07T09:56:17;1.45;;;0.52;;
63398;SDS011;49533;-34.520;150.798;2022-12-07T09:58:45;3.90;;;0.50;;
63398;SDS011;49533;-34.520;150.798;2022-12-07T10:01:15;5.45;;;0.73;;
63398;SDS011;49533;-34.520;150.798;2022-12-07T10:03:49;2.05;;;0.52;;
63398;SDS011;49533;-34.520;150.798;2022-12-07T10:06:25;4.25;;;0.98;;
63398;SDS011;49533;-34.520;150.798;2022-12-07T10:08:52;1.25;;;0.50;;
63398;SDS011;49533;-34.520;150.798;2022-12-07T10:11:19;1.77;;;0.70;;
63398;SDS011;49533;-34.520;150.798;2022-12-07T10:13:48;1.52;;;0.68;;
63398;SDS011;49533;-34.520;150.798;2022-12-07T10:16:30;2.63;;;0.60;;
63398;SDS011;49533;-34.520;150.798;2022-12-07T10:19:19;2.92;;;0.45;;
63398;SDS011;49533;-34.520;150.798;2022-12-07T10:22:00;1.40;;;0.60;;
63398;SDS011;49533;-34.520;150.798;2022-12-07T10:24:38;0.90;;;0.30;;
63398;SDS011;49533;-34.520;150.798;2022-12-07T10:27:17;0.35;;;0.22;;
63398;SDS011;49533;-34.520;150.798;2022-12-07T10:29:49;1.02;;;0.50;;
63398;SDS011;49533;-34.520;150.798;2022-12-07T10:35:19;0.95;;;0.50;;
63398;SDS011;49533;-34.520;150.798;2022-12-07T10:37:51;0.60;;;0.40;;
63398;SDS011;49533;-34.520;150.798;2022-12-07T10:40:26;1.58;;;0.60;;
63398;SDS011;49533;-34.520;150.798;2022-12-07T10:43:01;0.65;;;0.45;;
63398;SDS011;49533;-34.520;150.798;2022-12-07T10:45:31;0.65;;;0.55;;
63398;SDS011;49533;-34.520;150.798;2022-12-07T10:48:10;1.15;;;0.55;;
63398;SDS011;49533;-34.520;150.798;2022-12-07T10:51:03;0.80;;;0.35;;
63398;SDS011;49533;-34.520;150.798;2022-12-07T10:53:48;0.38;;;0.32;;
63398;SDS011;49533;-34.520;150.798;2022-12-07T10:56:35;1.08;;;0.30;;
63398;SDS011;49533;-34.520;150.798;2022-12-07T10:59:23;1.17;;;0.68;;
63398;SDS011;49533;-34.520;150.798;2022-12-07T11:02:17;1.83;;;0.60;;
63398;SDS011;49533;-34.520;150.798;2022-12-07T11:08:05;1.92;;;0.68;;
63398;SDS011;49533;-34.520;150.798;2022-12-07T11:10:50;0.55;;;0.40;;
63398;SDS011;49533;-34.520;150.798;2022-12-07T11:13:44;0.65;;;0.32;;
63398;SDS011;49533;-34.520;150.798;2022-12-07T11:16:24;1.93;;;0.70;;
63398;SDS011;49533;-34.520;150.798;2022-12-07T11:19:13;0.75;;;0.38;;
63398;SDS011;49533;-34.520;150.798;2022-12-07T11:21:56;1.77;;;0.40;;
63398;SDS011;49533;-34.520;150.798;2022-12-07T11:24:31;1.10;;;0.60;;
63398;SDS011;49533;-34.520;150.798;2022-12-07T11:30:12;3.40;;;0.50;;
63398;SDS011;49533;-34.520;150.798;2022-12-07T11:32:53;0.82;;;0.40;;
63398;SDS011;49533;-34.520;150.798;2022-12-07T11:35:50;1.33;;;0.85;;
63398;SDS011;49533;-34.520;150.798;2022-12-07T11:38:32;2.30;;;0.57;;
63398;SDS011;49533;-34.520;150.798;2022-12-07T11:41:08;0.45;;;0.45;;
63398;SDS011;49533;-34.520;150.798;2022-12-07T11:43:46;1.05;;;0.50;;
63398;SDS011;49533;-34.520;150.798;2022-12-07T11:46:35;1.45;;;0.77;;
63398;SDS011;49533;-34.520;150.798;2022-12-07T11:49:22;3.03;;;0.73;;
63398;SDS011;49533;-34.520;150.798;2022-12-07T11:52:04;1.33;;;0.40;;
63398;SDS011;49533;-34.520;150.798;2022-12-07T11:54:40;0.43;;;0.30;;
63398;SDS011;49533;-34.520;150.798;2022-12-07T11:57:17;2.05;;;0.52;;
63398;SDS011;49533;-34.520;150.798;2022-12-07T11:59:52;1.95;;;0.63;;
63398;SDS011;49533;-34.520;150.798;2022-12-07T12:02:28;0.47;;;0.40;;
63398;SDS011;49533;-34.520;150.798;2022-12-07T12:05:13;3.30;;;1.33;;
63398;SDS011;49533;-34.520;150.798;2022-12-07T12:07:48;0.75;;;0.50;;
63398;SDS011;49533;-34.520;150.798;2022-12-07T12:10:32;0.52;;;0.52;;
63398;SDS011;49533;-34.520;150.798;2022-12-07T12:13:20;0.40;;;0.38;;
63398;SDS011;49533;-34.520;150.798;2022-12-07T12:16:26;1.73;;;0.65;;
63398;SDS011;49533;-34.520;150.798;2022-12-07T12:19:24;1.65;;;0.65;;
63398;SDS011;49533;-34.520;150.798;2022-12-07T12:22:06;0.65;;;0.35;;
63398;SDS011;49533;-34.520;150.798;2022-12-07T12:24:40;1.63;;;0.57;;
63398;SDS011;49533;-34.520;150.798;2022-12-07T12:27:17;0.98;;;0.38;;
63398;SDS011;49533;-34.520;150.798;2022-12-07T12:29:53;2.17;;;0.82;;
63398;SDS011;49533;-34.520;150.798;2022-12-07T12:32:36;0.93;;;0.50;;
63398;SDS011;49533;-34.520;150.798;2022-12-07T12:37:55;1.92;;;0.70;;
63398;SDS011;49533;-34.520;150.798;2022-12-07T12:40:54;0.85;;;0.47;;
63398;SDS011;49533;-34.520;150.798;2022-12-07T12:43:43;1.85;;;0.50;;
63398;SDS011;49533;-34.520;150.798;2022-12-07T12:47:37;0.55;;;0.40;;
63398;SDS011;49533;-34.520;150.798;2022-12-07T12:49:54;1.30;;;0.70;;
63398;SDS011;49533;-34.520;150.798;2022-12-07T12:55:13;0.88;;;0.40;;
63398;SDS011;49533;-34.520;150.798;2022-12-07T12:57:47;1.15;;;0.57;;
63398;SDS011;49533;-34.520;150.798;2022-12-07T13:00:34;1.52;;;0.68;;
63398;SDS011;49533;-34.520;150.798;2022-12-07T13:03:01;1.13;;;0.50;;
63398;SDS011;49533;-34.520;150.798;2022-12-07T13:05:29;1.48;;;0.60;;
63398;SDS011;49533;-34.520;150.798;2022-12-07T13:08:01;1.75;;;0.50;;
63398;SDS011;49533;-34.520;150.798;2022-12-07T13:10:41;0.57;;;0.50;;
63398;SDS011;49533;-34.520;150.798;2022-12-07T13:18:56;2.13;;;0.73;;
63398;SDS011;49533;-34.520;150.798;2022-12-07T13:24:10;0.60;;;0.47;;
63398;SDS011;49533;-34.520;150.798;2022-12-07T13:26:41;2.05;;;0.70;;
63398;SDS011;49533;-34.520;150.798;2022-12-07T13:29:11;0.70;;;0.60;;
63398;SDS011;49533;-34.520;150.798;2022-12-07T13:31:45;6.15;;;0.60;;
63398;SDS011;49533;-34.520;150.798;2022-12-07T13:34:28;2.67;;;0.68;;
63398;SDS011;49533;-34.520;150.798;2022-12-07T13:36:59;5.63;;;0.70;;
63398;SDS011;49533;-34.520;150.798;2022-12-07T13:39:32;1.67;;;0.52;;
63398;SDS011;49533;-34.520;150.798;2022-12-07T13:42:08;1.30;;;0.63;;
63398;SDS011;49533;-34.520;150.798;2022-12-07T13:44:45;2.63;;;0.50;;
63398;SDS011;49533;-34.520;150.798;2022-12-07T13:47:17;1.00;;;0.52;;
63398;SDS011;49533;-34.520;150.798;2022-12-07T13:49:57;1.10;;;0.60;;
63398;SDS011;49533;-34.520;150.798;2022-12-07T13:52:26;4.60;;;0.80;;
63398;SDS011;49533;-34.520;150.798;2022-12-07T13:54:56;2.45;;;0.50;;
63398;SDS011;49533;-34.520;150.798;2022-12-07T13:57:28;0.85;;;0.50;;
63398;SDS011;49533;-34.520;150.798;2022-12-07T13:59:57;0.38;;;0.38;;
63398;SDS011;49533;-34.520;150.798;2022-12-07T14:02:26;3.00;;;0.80;;
63398;SDS011;49533;-34.520;150.798;2022-12-07T14:05:07;1.33;;;0.80;;
63398;SDS011;49533;-34.520;150.798;2022-12-07T14:07:53;1.80;;;0.93;;
63398;SDS011;49533;-34.520;150.798;2022-12-07T14:10:24;1.70;;;0.70;;
63398;SDS011;49533;-34.520;150.798;2022-12-07T14:12:54;1.55;;;0.63;;
63398;SDS011;49533;-34.520;150.798;2022-12-07T14:15:24;0.82;;;0.55;;
63398;SDS011;49533;-34.520;150.798;2022-12-07T14:17:56;2.92;;;0.80;;
63398;SDS011;49533;-34.520;150.798;2022-12-07T14:20:29;1.42;;;0.68;;
63398;SDS011;49533;-34.520;150.798;2022-12-07T14:22:58;0.52;;;0.50;;
63398;SDS011;49533;-34.520;150.798;2022-12-07T14:25:46;3.47;;;0.77;;
63398;SDS011;49533;-34.520;150.798;2022-12-07T14:28:27;4.78;;;0.60;;
63398;SDS011;49533;-34.520;150.798;2022-12-07T14:34:19;1.25;;;0.57;;
63398;SDS011;49533;-34.520;150.798;2022-12-07T14:36:47;0.77;;;0.68;;
63398;SDS011;49533;-34.520;150.798;2022-12-07T14:39:15;3.20;;;0.70;;
63398;SDS011;49533;-34.520;150.798;2022-12-07T14:41:43;1.27;;;0.40;;
63398;SDS011;49533;-34.520;150.798;2022-12-07T14:44:17;1.42;;;0.60;;
63398;SDS011;49533;-34.520;150.798;2022-12-07T14:46:47;0.93;;;0.77;;
63398;SDS011;49533;-34.520;150.798;2022-12-07T14:49:15;1.50;;;0.50;;
63398;SDS011;49533;-34.520;150.798;2022-12-07T14:51:42;2.80;;;1.25;;
63398;SDS011;49533;-34.520;150.798;2022-12-07T14:54:16;2.92;;;0.80;;
63398;SDS011;49533;-34.520;150.798;2022-12-07T14:56:44;4.55;;;0.85;;
63398;SDS011;49533;-34.520;150.798;2022-12-07T14:59:15;2.38;;;0.85;;
63398;SDS011;49533;-34.520;150.798;2022-12-07T15:01:44;0.88;;;0.68;;
63398;SDS011;49533;-34.520;150.798;2022-12-07T15:04:11;1.90;;;0.70;;
63398;SDS011;49533;-34.520;150.798;2022-12-07T15:06:38;2.05;;;0.65;;
63398;SDS011;49533;-34.520;150.798;2022-12-07T15:09:10;1.50;;;0.70;;
63398;SDS011;49533;-34.520;150.798;2022-12-07T15:11:38;2.30;;;0.55;;
63398;SDS011;49533;-34.520;150.798;2022-12-07T15:14:05;0.52;;;0.40;;
63398;SDS011;49533;-34.520;150.798;2022-12-07T15:16:33;1.45;;;0.63;;
63398;SDS011;49533;-34.520;150.798;2022-12-07T15:19:02;1.13;;;0.70;;
63398;SDS011;49533;-34.520;150.798;2022-12-07T15:21:29;1.55;;;0.60;;
63398;SDS011;49533;-34.520;150.798;2022-12-07T15:23:56;1.23;;;0.75;;